sensor_id;sensor_type;location;lat;lon;timestamp;pressure;altitude;pressure_sealevel;temperature;humidity
76374;BME280;65197;50.164;8.012;2023-10-31T00:00:42;71745.72;;;-144.13;100.00
76374;BME280;65197;50.164;8.012;2023-10-31T00:03:08;71749.63;;;-144.13;100.00
76374;BME280;65197;50.164;8.012;2023-10-31T00:05:33;71757.41;;;-144.13;100.00
76374;BME280;65197;50.164;8.012;2023-10-31T00:07:58;71761.31;;;-144.13;100.00
76374;BME280;65197;50.164;8.012;2023-10-31T00:10:24;71765.22;;;-144.13;100.00
76374;BME280;65197;50.164;8.012;2023-10-31T00:12:49;71761.31;;;-144.13;100.00
76374;BME280;65197;50.164;8.012;2023-10-31T00:15:14;71771.06;;;-144.13;100.00
76374;BME280;65197;50.164;8.012;2023-10-31T00:17:40;71774.97;;;-144.13;100.00
76374;BME280;65197;50.164;8.012;2023-10-31T00:20:06;71776.91;;;-144.13;100.00
76374;BME280;65197;50.164;8.012;2023-10-31T00:22:31;71774.97;;;-144.13;100.00
76374;BME280;65197;50.164;8.012;2023-10-31T00:24:57;71784.72;;;-144.13;100.00
76374;BME280;65197;50.164;8.012;2023-10-31T00:27:23;71786.66;;;-144.13;100.00
76374;BME280;65197;50.164;8.012;2023-10-31T00:29:48;71794.47;;;-144.13;100.00
76374;BME280;65197;50.164;8.012;2023-10-31T00:32:13;71788.59;;;-144.13;100.00
76374;BME280;65197;50.164;8.012;2023-10-31T00:34:39;71788.59;;;-144.13;100.00
76374;BME280;65197;50.164;8.012;2023-10-31T00:37:04;71794.47;;;-144.13;100.00
76374;BME280;65197;50.164;8.012;2023-10-31T00:39:29;71806.16;;;-144.13;100.00
76374;BME280;65197;50.164;8.012;2023-10-31T00:41:55;71808.09;;;-144.13;100.00
76374;BME280;65197;50.164;8.012;2023-10-31T00:44:20;71810.06;;;-144.13;100.00
76374;BME280;65197;50.164;8.012;2023-10-31T00:46:46;71817.84;;;-144.13;100.00
76374;BME280;65197;50.164;8.012;2023-10-31T00:49:11;71817.84;;;-144.13;100.00
76374;BME280;65197;50.164;8.012;2023-10-31T00:51:36;71821.75;;;-144.13;100.00
76374;BME280;65197;50.164;8.012;2023-10-31T00:54:02;71823.72;;;-144.13;100.00
76374;BME280;65197;50.164;8.012;2023-10-31T00:56:27;71825.66;;;-144.13;100.00
76374;BME280;65197;50.164;8.012;2023-10-31T00:58:53;71825.66;;;-144.13;100.00
76374;BME280;65197;50.164;8.012;2023-10-31T01:01:18;71837.34;;;-144.13;100.00
76374;BME280;65197;50.164;8.012;2023-10-31T01:03:44;71841.25;;;-144.13;100.00
76374;BME280;65197;50.164;8.012;2023-10-31T01:06:09;71849.06;;;-144.13;100.00
76374;BME280;65197;50.164;8.012;2023-10-31T01:08:35;71852.97;;;-144.13;100.00
76374;BME280;65197;50.164;8.012;2023-10-31T01:11:00;71851.00;;;-144.13;100.00
76374;BME280;65197;50.164;8.012;2023-10-31T01:13:25;71864.66;;;-144.13;100.00
76374;BME280;65197;50.164;8.012;2023-10-31T01:15:51;71856.84;;;-144.13;100.00
76374;BME280;65197;50.164;8.012;2023-10-31T01:18:16;71864.66;;;-144.13;100.00
76374;BME280;65197;50.164;8.012;2023-10-31T01:20:41;71862.69;;;-144.13;100.00
76374;BME280;65197;50.164;8.012;2023-10-31T01:23:07;71864.66;;;-144.13;100.00
76374;BME280;65197;50.164;8.012;2023-10-31T01:25:32;71872.44;;;-144.13;100.00
76374;BME280;65197;50.164;8.012;2023-10-31T01:27:58;71872.44;;;-144.13;100.00
76374;BME280;65197;50.164;8.012;2023-10-31T01:30:23;71880.25;;;-144.13;100.00
76374;BME280;65197;50.164;8.012;2023-10-31T01:32:48;71884.16;;;-144.13;100.00
76374;BME280;65197;50.164;8.012;2023-10-31T01:35:14;71882.22;;;-144.13;100.00
76374;BME280;65197;50.164;8.012;2023-10-31T01:37:39;71882.22;;;-144.13;100.00
76374;BME280;65197;50.164;8.012;2023-10-31T01:40:05;71884.16;;;-144.13;100.00
76374;BME280;65197;50.164;8.012;2023-10-31T01:42:32;71893.91;;;-144.13;100.00
76374;BME280;65197;50.164;8.012;2023-10-31T01:44:57;71899.75;;;-144.13;100.00
76374;BME280;65197;50.164;8.012;2023-10-31T01:47:23;71907.56;;;-144.13;100.00
76374;BME280;65197;50.164;8.012;2023-10-31T01:49:49;71909.50;;;-144.13;100.00
76374;BME280;65197;50.164;8.012;2023-10-31T01:52:15;71903.66;;;-144.13;100.00
76374;BME280;65197;50.164;8.012;2023-10-31T01:54:42;71901.69;;;-144.13;100.00
76374;BME280;65197;50.164;8.012;2023-10-31T01:57:08;71911.44;;;-144.13;100.00
76374;BME280;65197;50.164;8.012;2023-10-31T01:59:34;71917.31;;;-144.13;100.00
76374;BME280;65197;50.164;8.012;2023-10-31T02:02:00;71927.06;;;-144.13;100.00
76374;BME280;65197;50.164;8.012;2023-10-31T02:04:26;71932.91;;;-144.13;100.00
76374;BME280;65197;50.164;8.012;2023-10-31T02:06:51;71946.56;;;-144.13;100.00
76374;BME280;65197;50.164;8.012;2023-10-31T02:09:17;71969.94;;;-144.13;100.00
76374;BME280;65197;50.164;8.012;2023-10-31T02:11:42;71969.94;;;-144.13;100.00
76374;BME280;65197;50.164;8.012;2023-10-31T02:14:08;71960.19;;;-144.13;100.00
76374;BME280;65197;50.164;8.012;2023-10-31T02:16:33;71962.16;;;-144.13;100.00
76374;BME280;65197;50.164;8.012;2023-10-31T02:18:58;71954.34;;;-144.13;100.00
76374;BME280;65197;50.164;8.012;2023-10-31T02:21:25;71954.34;;;-144.13;100.00
76374;BME280;65197;50.164;8.012;2023-10-31T02:24:02;71952.41;;;-144.13;100.00
76374;BME280;65197;50.164;8.012;2023-10-31T02:26:36;71952.41;;;-144.13;100.00
76374;BME280;65197;50.164;8.012;2023-10-31T02:29:02;71948.50;;;-144.13;100.00
76374;BME280;65197;50.164;8.012;2023-10-31T02:31:28;71948.50;;;-144.13;100.00
76374;BME280;65197;50.164;8.012;2023-10-31T02:33:53;71952.41;;;-144.13;100.00
76374;BME280;65197;50.164;8.012;2023-10-31T02:36:19;71946.56;;;-144.13;100.00
76374;BME280;65197;50.164;8.012;2023-10-31T02:38:45;71954.34;;;-144.13;100.00
76374;BME280;65197;50.164;8.012;2023-10-31T02:41:11;71960.19;;;-144.13;100.00
76374;BME280;65197;50.164;8.012;2023-10-31T02:43:37;71958.25;;;-144.13;100.00
76374;BME280;65197;50.164;8.012;2023-10-31T02:46:03;71954.34;;;-144.13;100.00
76374;BME280;65197;50.164;8.012;2023-10-31T02:48:28;71958.25;;;-144.13;100.00
76374;BME280;65197;50.164;8.012;2023-10-31T02:50:54;71966.06;;;-144.13;100.00
76374;BME280;65197;50.164;8.012;2023-10-31T02:53:19;71973.84;;;-144.13;100.00
76374;BME280;65197;50.164;8.012;2023-10-31T02:55:45;71985.56;;;-144.13;100.00
76374;BME280;65197;50.164;8.012;2023-10-31T02:58:10;71993.34;;;-144.13;100.00
76374;BME280;65197;50.164;8.012;2023-10-31T03:00:36;71997.25;;;-144.13;100.00
76374;BME280;65197;50.164;8.012;2023-10-31T03:03:01;72008.94;;;-144.13;100.00
76374;BME280;65197;50.164;8.012;2023-10-31T03:05:27;72012.84;;;-144.13;100.00
76374;BME280;65197;50.164;8.012;2023-10-31T03:07:52;72016.75;;;-144.13;100.00
76374;BME280;65197;50.164;8.012;2023-10-31T03:10:18;72022.59;;;-144.13;100.00
76374;BME280;65197;50.164;8.012;2023-10-31T03:12:44;72024.56;;;-144.13;100.00
76374;BME280;65197;50.164;8.012;2023-10-31T03:15:10;72030.41;;;-144.13;100.00
76374;BME280;65197;50.164;8.012;2023-10-31T03:17:36;72028.44;;;-144.13;100.00
76374;BME280;65197;50.164;8.012;2023-10-31T03:20:01;72030.41;;;-144.13;100.00
76374;BME280;65197;50.164;8.012;2023-10-31T03:22:26;72026.50;;;-144.13;100.00
76374;BME280;65197;50.164;8.012;2023-10-31T03:24:52;72028.44;;;-144.13;100.00
76374;BME280;65197;50.164;8.012;2023-10-31T03:27:17;72028.44;;;-144.13;100.00
76374;BME280;65197;50.164;8.012;2023-10-31T03:29:42;72024.56;;;-144.13;100.00
76374;BME280;65197;50.164;8.012;2023-10-31T03:32:08;72024.56;;;-144.13;100.00
76374;BME280;65197;50.164;8.012;2023-10-31T03:34:33;72022.59;;;-144.13;100.00
76374;BME280;65197;50.164;8.012;2023-10-31T03:36:59;72024.56;;;-144.13;100.00
76374;BME280;65197;50.164;8.012;2023-10-31T03:39:24;72024.56;;;-144.13;100.00
76374;BME280;65197;50.164;8.012;2023-10-31T03:41:50;72018.69;;;-144.13;100.00
76374;BME280;65197;50.164;8.012;2023-10-31T03:44:15;72022.59;;;-144.13;100.00
76374;BME280;65197;50.164;8.012;2023-10-31T03:46:40;72024.56;;;-144.13;100.00
76374;BME280;65197;50.164;8.012;2023-10-31T03:49:06;72020.66;;;-144.13;100.00
76374;BME280;65197;50.164;8.012;2023-10-31T03:51:33;72024.56;;;-144.13;100.00
76374;BME280;65197;50.164;8.012;2023-10-31T03:53:59;72016.75;;;-144.13;100.00
76374;BME280;65197;50.164;8.012;2023-10-31T03:56:24;72016.75;;;-144.13;100.00
76374;BME280;65197;50.164;8.012;2023-10-31T03:58:50;72022.59;;;-144.13;100.00
76374;BME280;65197;50.164;8.012;2023-10-31T04:01:15;72024.56;;;-144.13;100.00
76374;BME280;65197;50.164;8.012;2023-10-31T04:03:41;72020.66;;;-144.13;100.00
76374;BME280;65197;50.164;8.012;2023-10-31T04:06:07;72024.56;;;-144.13;100.00
76374;BME280;65197;50.164;8.012;2023-10-31T04:08:32;72032.34;;;-144.13;100.00
76374;BME280;65197;50.164;8.012;2023-10-31T04:10:57;72032.34;;;-144.13;100.00
76374;BME280;65197;50.164;8.012;2023-10-31T04:13:23;72032.34;;;-144.13;100.00
76374;BME280;65197;50.164;8.012;2023-10-31T04:15:48;72040.16;;;-144.13;100.00
76374;BME280;65197;50.164;8.012;2023-10-31T04:18:14;72040.16;;;-144.13;100.00
76374;BME280;65197;50.164;8.012;2023-10-31T04:20:39;72046.00;;;-144.13;100.00
76374;BME280;65197;50.164;8.012;2023-10-31T04:23:05;72047.94;;;-144.13;100.00
76374;BME280;65197;50.164;8.012;2023-10-31T04:25:31;72051.84;;;-144.13;100.00
76374;BME280;65197;50.164;8.012;2023-10-31T04:27:56;72059.66;;;-144.13;100.00
76374;BME280;65197;50.164;8.012;2023-10-31T04:30:23;72057.69;;;-144.13;100.00
76374;BME280;65197;50.164;8.012;2023-10-31T04:32:48;72051.84;;;-144.13;100.00
76374;BME280;65197;50.164;8.012;2023-10-31T04:35:14;72059.66;;;-144.13;100.00
76374;BME280;65197;50.164;8.012;2023-10-31T04:37:39;72069.41;;;-144.13;100.00
76374;BME280;65197;50.164;8.012;2023-10-31T04:40:05;72067.44;;;-144.13;100.00
76374;BME280;65197;50.164;8.012;2023-10-31T04:42:32;72065.50;;;-144.13;100.00
76374;BME280;65197;50.164;8.012;2023-10-31T04:44:58;72067.44;;;-144.13;100.00
76374;BME280;65197;50.164;8.012;2023-10-31T04:47:24;72073.31;;;-144.13;100.00
76374;BME280;65197;50.164;8.012;2023-10-31T04:49:50;72071.34;;;-144.13;100.00
76374;BME280;65197;50.164;8.012;2023-10-31T04:52:17;72067.44;;;-144.13;100.00
76374;BME280;65197;50.164;8.012;2023-10-31T04:54:42;72077.19;;;-144.13;100.00
76374;BME280;65197;50.164;8.012;2023-10-31T04:57:08;72075.25;;;-144.13;100.00
76374;BME280;65197;50.164;8.012;2023-10-31T04:59:34;72077.19;;;-144.13;100.00
76374;BME280;65197;50.164;8.012;2023-10-31T05:01:59;72071.34;;;-144.13;100.00
76374;BME280;65197;50.164;8.012;2023-10-31T05:04:24;72079.16;;;-144.13;100.00
76374;BME280;65197;50.164;8.012;2023-10-31T05:06:50;72075.25;;;-144.13;100.00
76374;BME280;65197;50.164;8.012;2023-10-31T05:09:15;72073.31;;;-144.13;100.00
76374;BME280;65197;50.164;8.012;2023-10-31T05:11:41;72075.25;;;-144.13;100.00
76374;BME280;65197;50.164;8.012;2023-10-31T05:14:08;72075.25;;;-144.13;100.00
76374;BME280;65197;50.164;8.012;2023-10-31T05:16:43;72079.16;;;-144.13;100.00
76374;BME280;65197;50.164;8.012;2023-10-31T05:19:09;72083.06;;;-144.13;100.00
76374;BME280;65197;50.164;8.012;2023-10-31T05:21:35;72088.91;;;-144.13;100.00
76374;BME280;65197;50.164;8.012;2023-10-31T05:24:01;72083.06;;;-144.13;100.00
76374;BME280;65197;50.164;8.012;2023-10-31T05:26:26;72086.94;;;-144.13;100.00
76374;BME280;65197;50.164;8.012;2023-10-31T05:28:53;72090.84;;;-144.13;100.00
76374;BME280;65197;50.164;8.012;2023-10-31T05:31:19;72086.94;;;-144.13;100.00
76374;BME280;65197;50.164;8.012;2023-10-31T05:33:45;72079.16;;;-144.13;100.00
76374;BME280;65197;50.164;8.012;2023-10-31T05:36:23;72085.00;;;-144.13;100.00
76374;BME280;65197;50.164;8.012;2023-10-31T05:38:49;72088.91;;;-144.13;100.00
76374;BME280;65197;50.164;8.012;2023-10-31T05:41:14;72088.91;;;-144.13;100.00
76374;BME280;65197;50.164;8.012;2023-10-31T05:43:40;72094.75;;;-144.13;100.00
76374;BME280;65197;50.164;8.012;2023-10-31T05:46:06;72098.66;;;-144.13;100.00
76374;BME280;65197;50.164;8.012;2023-10-31T05:48:32;72102.56;;;-144.13;100.00
76374;BME280;65197;50.164;8.012;2023-10-31T05:50:57;72106.44;;;-144.13;100.00
76374;BME280;65197;50.164;8.012;2023-10-31T05:53:22;72106.44;;;-144.13;100.00
76374;BME280;65197;50.164;8.012;2023-10-31T05:55:48;72104.50;;;-144.13;100.00
76374;BME280;65197;50.164;8.012;2023-10-31T05:58:13;72108.41;;;-144.13;100.00
76374;BME280;65197;50.164;8.012;2023-10-31T06:00:38;72110.34;;;-144.13;100.00
76374;BME280;65197;50.164;8.012;2023-10-31T06:03:04;72122.06;;;-144.13;100.00
76374;BME280;65197;50.164;8.012;2023-10-31T06:05:29;72124.00;;;-144.13;100.00
76374;BME280;65197;50.164;8.012;2023-10-31T06:07:55;72125.94;;;-144.13;100.00
76374;BME280;65197;50.164;8.012;2023-10-31T06:10:21;72125.94;;;-144.13;100.00
76374;BME280;65197;50.164;8.012;2023-10-31T06:12:46;72129.84;;;-144.13;100.00
76374;BME280;65197;50.164;8.012;2023-10-31T06:15:12;72137.66;;;-144.13;100.00
76374;BME280;65197;50.164;8.012;2023-10-31T06:17:37;72133.75;;;-144.13;100.00
76374;BME280;65197;50.164;8.012;2023-10-31T06:20:03;72133.75;;;-144.13;100.00
76374;BME280;65197;50.164;8.012;2023-10-31T06:22:28;72137.66;;;-144.13;100.00
76374;BME280;65197;50.164;8.012;2023-10-31T06:24:54;72141.56;;;-144.13;100.00
76374;BME280;65197;50.164;8.012;2023-10-31T06:27:19;72145.44;;;-144.13;100.00
76374;BME280;65197;50.164;8.012;2023-10-31T06:29:44;72141.56;;;-144.13;100.00
76374;BME280;65197;50.164;8.012;2023-10-31T06:32:10;72145.44;;;-144.13;100.00
76374;BME280;65197;50.164;8.012;2023-10-31T06:34:35;72157.16;;;-144.13;100.00
76374;BME280;65197;50.164;8.012;2023-10-31T06:37:00;72153.25;;;-144.13;100.00
76374;BME280;65197;50.164;8.012;2023-10-31T06:39:26;72159.09;;;-144.13;100.00
76374;BME280;65197;50.164;8.012;2023-10-31T06:41:54;72161.06;;;-144.13;100.00
76374;BME280;65197;50.164;8.012;2023-10-31T06:44:21;72157.16;;;-144.13;100.00
76374;BME280;65197;50.164;8.012;2023-10-31T06:46:46;72164.94;;;-144.13;100.00
76374;BME280;65197;50.164;8.012;2023-10-31T06:49:11;72161.06;;;-144.13;100.00
76374;BME280;65197;50.164;8.012;2023-10-31T06:51:37;72168.84;;;-144.13;100.00
76374;BME280;65197;50.164;8.012;2023-10-31T06:54:02;72176.66;;;-144.13;100.00
76374;BME280;65197;50.164;8.012;2023-10-31T06:56:27;72172.75;;;-144.13;100.00
76374;BME280;65197;50.164;8.012;2023-10-31T06:58:54;72180.56;;;-144.13;100.00
76374;BME280;65197;50.164;8.012;2023-10-31T07:01:19;72186.41;;;-144.13;100.00
76374;BME280;65197;50.164;8.012;2023-10-31T07:03:44;72188.34;;;-144.13;100.00
76374;BME280;65197;50.164;8.012;2023-10-31T07:06:10;72188.34;;;-144.13;100.00
76374;BME280;65197;50.164;8.012;2023-10-31T07:08:35;72192.25;;;-144.13;100.00
76374;BME280;65197;50.164;8.012;2023-10-31T07:11:01;72200.06;;;-144.13;100.00
76374;BME280;65197;50.164;8.012;2023-10-31T07:13:26;72194.19;;;-144.13;100.00
76374;BME280;65197;50.164;8.012;2023-10-31T07:15:51;72194.19;;;-144.13;100.00
76374;BME280;65197;50.164;8.012;2023-10-31T07:18:17;72203.94;;;-144.13;100.00
76374;BME280;65197;50.164;8.012;2023-10-31T07:20:42;72198.09;;;-144.13;100.00
76374;BME280;65197;50.164;8.012;2023-10-31T07:23:07;72203.94;;;-144.13;100.00
76374;BME280;65197;50.164;8.012;2023-10-31T07:25:33;72196.16;;;-144.13;100.00
76374;BME280;65197;50.164;8.012;2023-10-31T07:27:58;72198.09;;;-144.13;100.00
76374;BME280;65197;50.164;8.012;2023-10-31T07:30:24;72192.25;;;-144.13;100.00
76374;BME280;65197;50.164;8.012;2023-10-31T07:32:49;72188.34;;;-144.13;100.00
76374;BME280;65197;50.164;8.012;2023-10-31T07:35:14;72184.44;;;-144.13;100.00
76374;BME280;65197;50.164;8.012;2023-10-31T07:37:40;72172.75;;;-144.13;100.00
76374;BME280;65197;50.164;8.012;2023-10-31T07:40:05;72166.91;;;-144.13;100.00
76374;BME280;65197;50.164;8.012;2023-10-31T07:42:31;72157.16;;;-144.13;100.00
76374;BME280;65197;50.164;8.012;2023-10-31T07:44:56;72157.16;;;-144.13;100.00
76374;BME280;65197;50.164;8.012;2023-10-31T07:47:22;72147.41;;;-144.13;100.00
76374;BME280;65197;50.164;8.012;2023-10-31T07:49:47;72149.34;;;-144.13;100.00
76374;BME280;65197;50.164;8.012;2023-10-31T07:52:13;72145.44;;;-144.13;100.00
76374;BME280;65197;50.164;8.012;2023-10-31T07:54:39;72141.56;;;-144.13;100.00
76374;BME280;65197;50.164;8.012;2023-10-31T07:57:06;72141.56;;;-144.13;100.00
76374;BME280;65197;50.164;8.012;2023-10-31T07:59:34;72149.34;;;-144.13;100.00
76374;BME280;65197;50.164;8.012;2023-10-31T08:02:00;72161.06;;;-144.13;100.00
76374;BME280;65197;50.164;8.012;2023-10-31T08:04:26;72157.16;;;-144.13;100.00
76374;BME280;65197;50.164;8.012;2023-10-31T08:06:53;72159.09;;;-144.13;100.00
76374;BME280;65197;50.164;8.012;2023-10-31T08:09:18;72164.94;;;-144.13;100.00
76374;BME280;65197;50.164;8.012;2023-10-31T08:11:44;72172.75;;;-144.13;100.00
76374;BME280;65197;50.164;8.012;2023-10-31T08:14:09;72172.75;;;-144.13;100.00
76374;BME280;65197;50.164;8.012;2023-10-31T08:16:35;72176.66;;;-144.13;100.00
76374;BME280;65197;50.164;8.012;2023-10-31T08:19:01;72170.81;;;-144.13;100.00
76374;BME280;65197;50.164;8.012;2023-10-31T08:21:27;72168.84;;;-144.13;100.00
76374;BME280;65197;50.164;8.012;2023-10-31T08:23:58;72184.44;;;-144.13;100.00
76374;BME280;65197;50.164;8.012;2023-10-31T08:26:24;72188.34;;;-144.13;100.00
76374;BME280;65197;50.164;8.012;2023-10-31T08:28:49;72192.25;;;-144.13;100.00
76374;BME280;65197;50.164;8.012;2023-10-31T08:31:14;72196.16;;;-144.13;100.00
76374;BME280;65197;50.164;8.012;2023-10-31T08:33:40;72203.94;;;-144.13;100.00
76374;BME280;65197;50.164;8.012;2023-10-31T08:36:05;72196.16;;;-144.13;100.00
76374;BME280;65197;50.164;8.012;2023-10-31T08:38:31;72198.09;;;-144.13;100.00
76374;BME280;65197;50.164;8.012;2023-10-31T08:40:58;72192.25;;;-144.13;100.00
76374;BME280;65197;50.164;8.012;2023-10-31T08:43:23;72198.09;;;-144.13;100.00
76374;BME280;65197;50.164;8.012;2023-10-31T08:45:49;72192.25;;;-144.13;100.00
76374;BME280;65197;50.164;8.012;2023-10-31T08:48:14;72190.31;;;-144.13;100.00
76374;BME280;65197;50.164;8.012;2023-10-31T08:50:41;72186.41;;;-144.13;100.00
76374;BME280;65197;50.164;8.012;2023-10-31T08:53:06;72196.16;;;-144.13;100.00
76374;BME280;65197;50.164;8.012;2023-10-31T08:55:32;72188.34;;;-144.13;100.00
76374;BME280;65197;50.164;8.012;2023-10-31T08:57:57;72192.25;;;-144.13;100.00
76374;BME280;65197;50.164;8.012;2023-10-31T09:00:22;72198.09;;;-144.13;100.00
76374;BME280;65197;50.164;8.012;2023-10-31T09:02:48;72196.16;;;-144.13;100.00
76374;BME280;65197;50.164;8.012;2023-10-31T09:05:13;72200.06;;;-144.13;100.00
76374;BME280;65197;50.164;8.012;2023-10-31T09:07:39;72200.06;;;-144.13;100.00
76374;BME280;65197;50.164;8.012;2023-10-31T09:10:06;72198.09;;;-144.13;100.00
76374;BME280;65197;50.164;8.012;2023-10-31T09:12:31;72192.25;;;-144.13;100.00
76374;BME280;65197;50.164;8.012;2023-10-31T09:14:57;72200.06;;;-144.13;100.00
76374;BME280;65197;50.164;8.012;2023-10-31T09:17:22;72196.16;;;-144.13;100.00
76374;BME280;65197;50.164;8.012;2023-10-31T09:19:47;72205.91;;;-144.13;100.00
76374;BME280;65197;50.164;8.012;2023-10-31T09:22:13;72207.84;;;-144.13;100.00
76374;BME280;65197;50.164;8.012;2023-10-31T09:24:38;72200.06;;;-144.13;100.00
76374;BME280;65197;50.164;8.012;2023-10-31T09:27:05;72207.84;;;-144.13;100.00
76374;BME280;65197;50.164;8.012;2023-10-31T09:29:30;72211.75;;;-144.13;100.00
76374;BME280;65197;50.164;8.012;2023-10-31T09:31:56;72202.00;;;-144.13;100.00
76374;BME280;65197;50.164;8.012;2023-10-31T09:34:22;72219.56;;;-144.13;100.00
76374;BME280;65197;50.164;8.012;2023-10-31T09:36:47;72207.84;;;-144.13;100.00
76374;BME280;65197;50.164;8.012;2023-10-31T09:39:12;72207.84;;;-144.13;100.00
76374;BME280;65197;50.164;8.012;2023-10-31T09:41:38;72192.25;;;-144.13;100.00
76374;BME280;65197;50.164;8.012;2023-10-31T09:44:03;72174.69;;;-144.13;100.00
76374;BME280;65197;50.164;8.012;2023-10-31T09:46:29;72184.44;;;-144.13;100.00
76374;BME280;65197;50.164;8.012;2023-10-31T09:48:55;72194.19;;;-144.13;100.00
76374;BME280;65197;50.164;8.012;2023-10-31T09:51:21;72190.31;;;-144.13;100.00
76374;BME280;65197;50.164;8.012;2023-10-31T09:53:47;72192.25;;;-144.13;100.00
76374;BME280;65197;50.164;8.012;2023-10-31T09:56:13;72203.94;;;-144.13;100.00
76374;BME280;65197;50.164;8.012;2023-10-31T09:58:39;72192.25;;;-144.13;100.00
76374;BME280;65197;50.164;8.012;2023-10-31T10:01:06;72164.94;;;-144.13;100.00
76374;BME280;65197;50.164;8.012;2023-10-31T10:03:32;72157.16;;;-144.13;100.00
76374;BME280;65197;50.164;8.012;2023-10-31T10:05:58;72157.16;;;-144.13;100.00
76374;BME280;65197;50.164;8.012;2023-10-31T10:08:24;72149.34;;;-144.13;100.00
76374;BME280;65197;50.164;8.012;2023-10-31T10:10:50;72157.16;;;-144.13;100.00
76374;BME280;65197;50.164;8.012;2023-10-31T10:13:22;72161.06;;;-144.13;100.00
76374;BME280;65197;50.164;8.012;2023-10-31T10:15:49;72163.00;;;-144.13;100.00
76374;BME280;65197;50.164;8.012;2023-10-31T10:18:27;72168.84;;;-144.13;100.00
76374;BME280;65197;50.164;8.012;2023-10-31T10:20:58;72184.44;;;-144.13;100.00
76374;BME280;65197;50.164;8.012;2023-10-31T10:23:24;72192.25;;;-144.13;100.00
76374;BME280;65197;50.164;8.012;2023-10-31T10:25:51;72190.31;;;-144.13;100.00
76374;BME280;65197;50.164;8.012;2023-10-31T10:28:17;72203.94;;;-144.13;100.00
76374;BME280;65197;50.164;8.012;2023-10-31T10:30:45;72194.19;;;-144.13;100.00
76374;BME280;65197;50.164;8.012;2023-10-31T10:33:11;72196.16;;;-144.13;100.00
76374;BME280;65197;50.164;8.012;2023-10-31T10:35:37;72194.19;;;-144.13;100.00
76374;BME280;65197;50.164;8.012;2023-10-31T10:38:04;72192.25;;;-144.13;100.00
76374;BME280;65197;50.164;8.012;2023-10-31T10:40:32;72192.25;;;-144.13;100.00
76374;BME280;65197;50.164;8.012;2023-10-31T10:42:58;72190.31;;;-144.13;100.00
76374;BME280;65197;50.164;8.012;2023-10-31T10:45:25;72194.19;;;-144.13;100.00
76374;BME280;65197;50.164;8.012;2023-10-31T10:47:52;72196.16;;;-144.13;100.00
76374;BME280;65197;50.164;8.012;2023-10-31T10:50:20;72184.44;;;-144.13;100.00
76374;BME280;65197;50.164;8.012;2023-10-31T10:53:13;72184.44;;;-144.13;100.00
76374;BME280;65197;50.164;8.012;2023-10-31T10:55:45;72170.81;;;-144.13;100.00
76374;BME280;65197;50.164;8.012;2023-10-31T11:00:46;72145.44;;;-144.13;100.00
76374;BME280;65197;50.164;8.012;2023-10-31T11:03:12;72133.75;;;-144.13;100.00
76374;BME280;65197;50.164;8.012;2023-10-31T11:05:39;72094.75;;;-144.13;100.00
76374;BME280;65197;50.164;8.012;2023-10-31T11:08:05;72075.25;;;-144.13;100.00
76374;BME280;65197;50.164;8.012;2023-10-31T11:10:31;72079.16;;;-144.13;100.00
76374;BME280;65197;50.164;8.012;2023-10-31T11:12:57;72071.34;;;-144.13;100.00
76374;BME280;65197;50.164;8.012;2023-10-31T11:15:24;72073.31;;;-144.13;100.00
76374;BME280;65197;50.164;8.012;2023-10-31T11:17:51;72047.94;;;-144.13;100.00
76374;BME280;65197;50.164;8.012;2023-10-31T11:20:18;72036.25;;;-144.13;100.00
76374;BME280;65197;50.164;8.012;2023-10-31T11:22:46;72038.19;;;-144.13;100.00
76374;BME280;65197;50.164;8.012;2023-10-31T11:25:19;72032.34;;;-144.13;100.00
76374;BME280;65197;50.164;8.012;2023-10-31T11:27:52;72038.19;;;-144.13;100.00
76374;BME280;65197;50.164;8.012;2023-10-31T11:32:52;72032.34;;;-144.13;100.00
76374;BME280;65197;50.164;8.012;2023-10-31T11:35:18;72010.91;;;-144.13;100.00
76374;BME280;65197;50.164;8.012;2023-10-31T11:37:47;72024.56;;;-144.13;100.00
76374;BME280;65197;50.164;8.012;2023-10-31T11:42:38;72044.06;;;-144.13;100.00
76374;BME280;65197;50.164;8.012;2023-10-31T11:45:07;72047.94;;;-144.13;100.00
76374;BME280;65197;50.164;8.012;2023-10-31T11:47:50;72047.94;;;-144.13;100.00
76374;BME280;65197;50.164;8.012;2023-10-31T11:50:16;72036.25;;;-144.13;100.00
76374;BME280;65197;50.164;8.012;2023-10-31T11:52:42;72044.06;;;-144.13;100.00
76374;BME280;65197;50.164;8.012;2023-10-31T11:55:12;72038.19;;;-144.13;100.00
76374;BME280;65197;50.164;8.012;2023-10-31T11:57:38;72040.16;;;-144.13;100.00
76374;BME280;65197;50.164;8.012;2023-10-31T12:00:05;72032.34;;;-144.13;100.00
76374;BME280;65197;50.164;8.012;2023-10-31T12:02:31;72049.91;;;-144.13;100.00
76374;BME280;65197;50.164;8.012;2023-10-31T12:05:12;72047.94;;;-144.13;100.00
76374;BME280;65197;50.164;8.012;2023-10-31T12:07:45;72036.25;;;-144.13;100.00
76374;BME280;65197;50.164;8.012;2023-10-31T12:10:11;72005.06;;;-144.13;100.00
76374;BME280;65197;50.164;8.012;2023-10-31T12:12:36;71973.84;;;-144.13;100.00
76374;BME280;65197;50.164;8.012;2023-10-31T12:15:08;71899.75;;;-144.13;100.00
76374;BME280;65197;50.164;8.012;2023-10-31T12:17:35;71854.91;;;-144.13;99.21
76374;BME280;65197;50.164;8.012;2023-10-31T12:20:04;71728.16;;;-144.13;92.76
76374;BME280;65197;50.164;8.012;2023-10-31T12:22:30;71659.91;;;-144.13;90.11
76374;BME280;65197;50.164;8.012;2023-10-31T12:25:06;71572.19;;;-144.13;81.25
76374;BME280;65197;50.164;8.012;2023-10-31T12:27:49;71560.47;;;-144.13;81.01
76374;BME280;65197;50.164;8.012;2023-10-31T12:30:19;71654.06;;;-144.13;82.31
76374;BME280;65197;50.164;8.012;2023-10-31T12:32:52;71761.31;;;-144.13;87.54